createdAt,value
2023-03-21T00:01:31.648Z,101560.28
2023-03-21T00:03:58.504Z,101560.38
2023-03-21T00:06:28.222Z,101559.63
2023-03-21T00:08:58.581Z,101454.88
2023-03-21T00:11:25.138Z,101502.56
2023-03-21T00:14:02.429Z,101565.13
2023-03-21T00:16:35.228Z,101554.13
2023-03-21T00:19:06.011Z,101429.97
2023-03-21T00:21:59.261Z,101557.94
2023-03-21T00:24:22.706Z,101458.25
2023-03-21T00:27:15.853Z,101541.41
2023-03-21T00:29:49.766Z,101524.34
2023-03-21T00:32:22.888Z,101530.50
2023-03-21T00:35:11.955Z,101465.38
2023-03-21T00:37:46.599Z,101470.34
2023-03-21T00:40:27.926Z,101550.09
2023-03-21T00:42:59.698Z,101521.47
2023-03-21T00:45:27.342Z,101545.66
2023-03-21T00:47:58.293Z,101513.78
2023-03-21T00:50:28.597Z,101527.50
2023-03-21T00:52:55.954Z,101516.81
2023-03-21T00:55:22.594Z,101481.13
2023-03-21T00:58:02.205Z,101501.47
2023-03-21T01:00:30.250Z,101501.97
2023-03-21T01:03:08.523Z,101493.50
2023-03-21T01:06:07.056Z,101438.06
2023-03-21T01:08:51.068Z,101502.63
2023-03-21T01:11:24.976Z,101479.50
2023-03-21T01:13:59.748Z,101507.69
2023-03-21T01:16:31.742Z,101481.31
2023-03-21T01:18:59.736Z,101493.50
2023-03-21T01:21:26.837Z,101489.19
2023-03-21T01:23:56.576Z,101490.97
2023-03-21T01:26:26.922Z,101461.31
2023-03-21T01:28:56.208Z,101485.03
2023-03-21T01:31:23.585Z,101477.19
2023-03-21T01:33:53.051Z,101451.72
2023-03-21T01:36:23.997Z,101485.22
2023-03-21T01:39:00.102Z,101475.03
2023-03-21T01:41:41.905Z,101368.03
2023-03-21T01:44:19.480Z,101472.47
2023-03-21T01:47:22.176Z,101438.19
2023-03-21T01:49:46.885Z,101469.88
2023-03-21T01:52:29.652Z,101466.75
2023-03-21T01:55:04.725Z,101422.03
2023-03-21T01:57:52.210Z,101465.06
2023-03-21T02:00:38.587Z,101397.97
2023-03-21T02:03:15.288Z,101454.88
2023-03-21T02:06:01.747Z,101399.88
2023-03-21T02:08:39.157Z,101440.75
2023-03-21T02:11:10.289Z,101428.50
2023-03-21T02:13:37.717Z,101314.69
2023-03-21T02:16:26.128Z,101456.09
2023-03-21T02:19:04.912Z,101458.22
2023-03-21T02:21:58.320Z,101440.34
2023-03-21T02:24:38.653Z,101449.03
2023-03-21T02:27:11.164Z,101450.81
2023-03-21T02:30:04.578Z,101447.78
2023-03-21T02:33:19.506Z,101446.06
2023-03-21T02:36:26.879Z,101444.06
2023-03-21T02:38:56.336Z,101389.00
2023-03-21T02:41:40.384Z,101436.94
2023-03-21T02:44:42.329Z,101434.19
2023-03-21T02:47:23.528Z,101368.94
2023-03-21T02:49:53.570Z,101378.69
2023-03-21T02:52:37.906Z,101375.22
2023-03-21T02:55:20.144Z,101438.84
2023-03-21T02:57:52.849Z,101357.22
2023-03-21T03:03:34.999Z,101365.78
2023-03-21T03:06:13.929Z,101420.19
2023-03-21T03:09:12.194Z,101399.22
2023-03-21T03:11:43.737Z,101388.84
2023-03-21T03:14:46.820Z,101348.63
2023-03-21T03:17:51.968Z,101419.59
2023-03-21T03:20:43.274Z,101406.06
2023-03-21T03:23:32.070Z,101418.53
2023-03-21T03:26:07.172Z,101397.34
2023-03-21T03:28:53.363Z,101408.38
2023-03-21T03:31:34.065Z,101386.56
2023-03-21T03:34:07.294Z,101415.59
2023-03-21T03:36:39.788Z,101416.97
2023-03-21T03:39:10.500Z,101399.81
2023-03-21T03:42:12.437Z,101346.34
2023-03-21T03:44:42.338Z,101374.38
2023-03-21T03:47:32.946Z,101417.28
2023-03-21T03:50:39.425Z,101393.13
2023-03-21T03:53:18.586Z,101431.38
2023-03-21T03:55:46.526Z,101429.91
2023-03-21T03:58:44.870Z,101428.94
2023-03-21T04:01:17.776Z,101424.94
2023-03-21T04:06:35.818Z,101433.16
2023-03-21T04:09:18.711Z,101427.25
2023-03-21T04:11:47.411Z,101433.41
2023-03-21T04:14:14.148Z,101423.03
2023-03-21T04:16:43.965Z,101423.13
2023-03-21T04:19:20.193Z,101392.75
2023-03-21T04:21:47.759Z,101399.31
2023-03-21T04:24:17.202Z,101397.81
2023-03-21T04:26:43.892Z,101373.88
2023-03-21T04:29:10.650Z,101414.09
2023-03-21T04:31:45.639Z,101411.22
2023-03-21T04:34:15.359Z,101394.38
2023-03-21T04:36:46.085Z,101406.56
2023-03-21T04:39:13.853Z,101395.25
2023-03-21T04:41:46.705Z,101427.44
2023-03-21T04:44:15.650Z,101418.38
2023-03-21T04:46:45.985Z,101432.38
2023-03-21T04:49:27.496Z,101428.31
2023-03-21T04:51:58.455Z,101431.69
2023-03-21T04:54:27.693Z,101399.50
2023-03-21T04:56:56.645Z,101393.22
2023-03-21T04:59:26.627Z,101383.91
2023-03-21T05:01:54.166Z,101362.00
2023-03-21T05:04:23.025Z,101381.50
2023-03-21T05:06:49.862Z,101390.75
2023-03-21T05:09:16.551Z,101387.19
2023-03-21T05:11:43.927Z,101430.28
2023-03-21T05:14:25.753Z,101304.22
2023-03-21T05:17:01.776Z,101407.72
2023-03-21T05:19:35.828Z,101421.69
2023-03-21T05:22:12.171Z,101399.78
2023-03-21T05:24:50.700Z,101405.16
2023-03-21T05:27:38.558Z,101320.59
2023-03-21T05:30:21.587Z,101419.50
2023-03-21T05:32:48.343Z,101390.66
2023-03-21T05:35:15.065Z,101445.34
2023-03-21T05:37:44.893Z,101410.97
2023-03-21T05:40:14.399Z,101434.88
2023-03-21T05:42:47.175Z,101409.28
2023-03-21T05:45:14.561Z,101449.13
2023-03-21T05:47:41.559Z,101454.81
2023-03-21T05:50:09.044Z,101438.53
2023-03-21T05:52:37.680Z,101459.28
2023-03-21T05:57:48.494Z,101440.09
2023-03-21T06:00:15.689Z,101404.19
2023-03-21T06:02:42.579Z,101456.94
2023-03-21T06:05:13.810Z,101455.66
2023-03-21T06:07:40.564Z,101433.75
2023-03-21T06:10:10.567Z,101426.00
2023-03-21T06:12:37.413Z,101456.50
2023-03-21T06:15:06.186Z,101469.13
2023-03-21T06:17:41.028Z,101443.34
2023-03-21T06:20:08.960Z,101481.59
2023-03-21T06:22:36.684Z,101463.50
2023-03-21T06:25:11.169Z,101479.59
2023-03-21T06:27:38.142Z,101439.31
2023-03-21T06:30:07.232Z,101471.31
2023-03-21T06:32:37.660Z,101449.78
2023-03-21T06:35:07.679Z,101479.97
2023-03-21T06:37:35.215Z,101459.34
2023-03-21T06:40:01.948Z,101464.22
2023-03-21T06:42:30.217Z,101469.25
2023-03-21T06:44:57.192Z,101464.69
2023-03-21T06:47:27.022Z,101456.63
2023-03-21T06:49:59.404Z,101466.34
2023-03-21T06:52:26.239Z,101375.88
2023-03-21T06:54:53.428Z,101389.56
2023-03-21T06:57:22.032Z,101465.50
2023-03-21T06:59:48.826Z,101459.81
2023-03-21T07:02:20.813Z,101480.66
2023-03-21T07:04:47.406Z,101474.13
2023-03-21T07:07:14.260Z,101446.56
2023-03-21T07:09:41.246Z,101471.75
2023-03-21T07:12:10.598Z,101441.28
2023-03-21T07:14:45.066Z,101458.25
2023-03-21T07:17:17.880Z,101465.00
2023-03-21T07:19:47.430Z,101441.81
2023-03-21T07:22:17.364Z,101427.56
2023-03-21T07:24:45.963Z,101433.81
2023-03-21T07:27:17.238Z,101460.91
2023-03-21T07:29:44.381Z,101473.69
2023-03-21T07:32:14.489Z,101435.41
2023-03-21T07:34:47.310Z,101477.34
2023-03-21T07:37:32.056Z,101439.00
2023-03-21T07:40:00.398Z,101456.97
2023-03-21T07:42:28.100Z,101484.41
2023-03-21T07:45:01.064Z,101405.25
2023-03-21T07:47:29.591Z,101459.84
2023-03-21T07:49:56.238Z,101486.25
2023-03-21T07:52:25.907Z,101373.91
2023-03-21T07:54:58.579Z,101358.81
2023-03-21T07:57:25.297Z,101376.47
2023-03-21T07:59:52.241Z,101475.81
2023-03-21T08:02:20.310Z,101487.66
2023-03-21T08:04:52.240Z,101369.13
2023-03-21T08:07:24.523Z,101488.00
2023-03-21T08:09:51.126Z,101485.22
2023-03-21T08:12:19.740Z,101445.50
2023-03-21T08:14:52.402Z,101489.06
2023-03-21T08:17:22.412Z,101482.47
2023-03-21T08:19:49.455Z,101485.34
2023-03-21T08:22:19.130Z,101482.56
2023-03-21T08:24:45.740Z,101487.88
2023-03-21T08:30:02.670Z,101299.34
2023-03-21T08:32:42.250Z,101338.00
2023-03-21T08:35:13.801Z,101494.50
2023-03-21T08:37:44.520Z,101495.53
2023-03-21T08:40:21.337Z,101490.63
2023-03-21T08:42:56.852Z,101490.53
2023-03-21T08:45:31.714Z,101456.03
2023-03-21T08:47:58.897Z,101487.16
2023-03-21T08:50:40.810Z,101476.22
2023-03-21T08:53:09.489Z,101468.06
2023-03-21T08:55:36.456Z,101474.78
2023-03-21T08:58:11.750Z,101486.25
2023-03-21T09:00:41.761Z,101419.88
2023-03-21T09:03:11.206Z,101413.69
2023-03-21T09:05:38.725Z,101469.53
2023-03-21T09:08:09.406Z,101470.84
2023-03-21T09:10:37.850Z,101458.88
2023-03-21T09:13:13.353Z,101464.22
2023-03-21T09:15:40.545Z,101473.97
2023-03-21T09:18:28.302Z,101426.16
2023-03-21T09:20:56.580Z,101473.69
2023-03-21T09:23:23.290Z,101465.25
2023-03-21T09:25:53.565Z,101396.53
2023-03-21T09:28:26.712Z,101437.56
2023-03-21T09:30:55.451Z,101390.75
2023-03-21T09:33:27.341Z,101352.81
2023-03-21T09:36:02.694Z,101419.97
2023-03-21T09:38:30.800Z,101465.19
2023-03-21T09:41:19.756Z,101475.25
2023-03-21T09:44:18.742Z,101317.47
2023-03-21T09:47:16.182Z,101440.28
2023-03-21T09:49:48.536Z,101438.84
2023-03-21T09:52:45.759Z,101479.59
2023-03-21T09:55:35.365Z,101471.25
2023-03-21T09:58:21.437Z,101473.19
2023-03-21T10:01:18.283Z,101468.06
2023-03-21T10:03:54.445Z,101387.53
2023-03-21T10:06:34.892Z,101478.53
2023-03-21T10:09:34.954Z,101478.59
2023-03-21T10:15:16.145Z,101471.41
2023-03-21T10:17:49.093Z,101334.66
2023-03-21T10:20:32.359Z,101461.38
2023-03-21T10:23:03.426Z,101450.72
2023-03-21T10:25:42.563Z,101435.84
2023-03-21T10:28:17.581Z,101461.16
2023-03-21T10:31:04.841Z,101326.16
2023-03-21T10:33:43.496Z,101389.47
2023-03-21T10:36:28.004Z,101320.56
2023-03-21T10:39:07.314Z,101396.88
2023-03-21T10:41:35.340Z,101381.75
2023-03-21T10:44:37.114Z,101444.78
2023-03-21T10:47:11.811Z,101356.59
2023-03-21T10:50:11.585Z,101433.19
2023-03-21T10:52:41.914Z,101439.41
2023-03-21T10:55:32.308Z,101427.94
2023-03-21T10:58:04.217Z,101432.06
2023-03-21T11:00:41.576Z,101344.88
2023-03-21T11:03:24.811Z,101358.44
2023-03-21T11:05:59.346Z,101439.00
2023-03-21T11:08:33.013Z,101372.81
2023-03-21T11:11:20.407Z,101301.44
2023-03-21T11:13:57.519Z,101388.44
2023-03-21T11:16:41.282Z,101432.56
2023-03-21T11:19:51.941Z,101424.91
2023-03-21T11:22:22.208Z,101431.06
2023-03-21T11:24:59.909Z,101399.81
2023-03-21T11:27:34.897Z,101364.63
2023-03-21T11:30:21.710Z,101408.13
2023-03-21T11:32:59.408Z,101354.78
2023-03-21T11:35:32.945Z,101285.00
2023-03-21T11:38:04.404Z,101362.78
2023-03-21T11:40:40.493Z,101310.63
2023-03-21T11:43:19.631Z,101280.38
2023-03-21T11:46:00.815Z,101384.94
2023-03-21T11:48:28.965Z,101313.50
2023-03-21T11:54:55.913Z,101371.47
2023-03-21T11:57:27.534Z,101394.72
2023-03-21T12:00:00.367Z,101387.50
2023-03-21T12:03:28.772Z,101335.56
2023-03-21T12:06:02.353Z,101359.88
2023-03-21T12:08:36.533Z,101323.63
2023-03-21T12:11:44.230Z,101362.22
2023-03-21T12:14:31.977Z,101348.72
2023-03-21T12:17:32.737Z,101351.59
2023-03-21T12:20:27.503Z,101338.97
2023-03-21T12:23:18.664Z,101338.94
2023-03-21T12:26:03.611Z,101293.09
2023-03-21T12:28:39.087Z,101336.66
2023-03-21T12:31:46.411Z,101276.28
2023-03-21T12:34:22.000Z,101324.19
2023-03-21T12:37:05.339Z,101319.56
2023-03-21T12:39:35.688Z,101316.59
2023-03-21T12:42:44.681Z,101252.41
2023-03-21T12:45:47.093Z,101302.59
2023-03-21T12:48:54.854Z,101306.06
2023-03-21T12:51:34.719Z,101262.81
2023-03-21T12:54:17.635Z,101303.41
2023-03-21T12:57:08.762Z,101296.72
2023-03-21T12:59:43.067Z,101290.50
2023-03-21T13:02:31.506Z,101283.78
2023-03-21T13:05:19.745Z,101263.56
2023-03-21T13:07:59.368Z,101279.13
2023-03-21T13:10:29.184Z,101252.06
2023-03-21T13:13:22.926Z,101272.91
2023-03-21T13:19:57.900Z,101081.53
2023-03-21T13:22:34.953Z,101259.25
2023-03-21T13:25:17.940Z,101185.50
2023-03-21T13:28:14.349Z,101142.97
2023-03-21T13:30:41.261Z,101250.03
2023-03-21T13:33:22.698Z,101255.91
2023-03-21T13:36:15.720Z,101258.63
2023-03-21T13:38:43.465Z,101210.28
2023-03-21T13:41:21.476Z,101250.91
2023-03-21T13:44:27.066Z,101225.06
2023-03-21T13:47:06.418Z,101237.00
2023-03-21T13:49:41.453Z,101235.75
2023-03-21T13:52:13.856Z,101235.34
2023-03-21T13:54:57.682Z,101201.28
2023-03-21T13:57:27.276Z,101224.72
2023-03-21T14:00:37.742Z,101222.25
2023-03-21T14:03:21.218Z,101164.38
2023-03-21T14:05:55.954Z,101225.38
2023-03-21T14:08:37.261Z,101222.88
2023-03-21T14:11:07.427Z,101188.16
2023-03-21T14:13:38.081Z,101181.13
2023-03-21T14:16:31.327Z,101215.81
2023-03-21T14:19:04.773Z,101216.94
2023-03-21T14:21:34.284Z,101223.38
2023-03-21T14:24:10.189Z,101187.53
2023-03-21T14:26:44.036Z,101121.16
2023-03-21T14:29:26.157Z,101096.31
2023-03-21T14:32:00.754Z,101168.66
2023-03-21T14:34:31.482Z,101128.47
2023-03-21T14:37:32.034Z,101121.06
2023-03-21T14:40:01.132Z,101185.41
2023-03-21T14:45:50.102Z,101141.84
2023-03-21T14:48:20.108Z,101126.97
2023-03-21T14:51:04.760Z,101178.41
2023-03-21T14:53:36.973Z,101123.09
2023-03-21T14:59:19.672Z,101168.66
2023-03-21T15:01:53.639Z,101152.91
2023-03-21T15:04:21.790Z,101156.06
2023-03-21T15:07:08.201Z,101163.56
2023-03-21T15:09:35.206Z,101154.56
2023-03-21T15:12:11.449Z,101165.25
2023-03-21T15:14:42.018Z,101168.31
2023-03-21T15:17:10.700Z,101161.13
2023-03-21T15:19:40.039Z,101158.66
2023-03-21T15:22:27.553Z,100965.13
2023-03-21T15:25:08.734Z,101177.63
2023-03-21T15:27:48.849Z,101031.63
2023-03-21T15:30:32.907Z,100966.28
2023-03-21T15:33:07.787Z,101027.31
2023-03-21T15:35:58.956Z,101086.44
2023-03-21T15:38:34.211Z,101168.47
2023-03-21T15:41:16.686Z,100927.81
2023-03-21T15:46:52.089Z,101154.56
2023-03-21T15:50:04.531Z,101141.59
2023-03-21T15:52:32.306Z,101057.97
2023-03-21T15:55:05.998Z,100969.50
2023-03-21T15:57:38.661Z,100944.22
2023-03-21T16:00:36.037Z,101128.69
2023-03-21T16:03:20.827Z,100956.97
2023-03-21T16:06:08.838Z,101126.19
2023-03-21T16:08:49.276Z,101058.97
2023-03-21T16:11:25.431Z,100963.81
2023-03-21T16:13:56.604Z,100914.03
2023-03-21T16:16:44.711Z,101105.09
2023-03-21T16:19:22.735Z,101101.38
2023-03-21T16:21:49.475Z,101103.75
2023-03-21T16:24:19.277Z,101144.88
2023-03-21T16:26:50.970Z,100993.16
2023-03-21T16:29:18.698Z,101130.75
2023-03-21T16:31:51.128Z,101015.09
2023-03-21T16:34:21.296Z,101132.28
2023-03-21T16:36:53.603Z,101131.78
2023-03-21T16:39:35.622Z,101119.22
2023-03-21T16:42:02.436Z,101025.69
2023-03-21T16:44:34.216Z,101051.16
2023-03-21T16:47:02.397Z,101125.53
2023-03-21T16:49:32.398Z,100986.78
2023-03-21T16:51:59.169Z,100958.09
2023-03-21T16:54:29.060Z,101060.38
2023-03-21T16:56:59.682Z,101065.56
2023-03-21T16:59:26.482Z,100976.03
2023-03-21T17:01:54.866Z,101148.91
2023-03-21T17:04:27.782Z,101069.94
2023-03-21T17:07:01.937Z,101027.63
2023-03-21T17:09:43.013Z,101133.97
2023-03-21T17:12:18.689Z,101141.00
2023-03-21T17:17:38.033Z,101117.03
2023-03-21T17:20:31.273Z,101005.34
2023-03-21T17:23:05.244Z,101038.31
2023-03-21T17:25:38.854Z,101095.22
2023-03-21T17:28:16.738Z,101067.50
2023-03-21T17:30:54.808Z,101142.69
2023-03-21T17:33:36.122Z,101140.50
2023-03-21T17:36:03.731Z,100996.19
2023-03-21T17:38:41.398Z,101139.16
2023-03-21T17:41:26.098Z,100917.19
2023-03-21T17:44:02.728Z,101103.38
2023-03-21T17:46:52.864Z,100990.66
2023-03-21T17:49:27.925Z,100947.00
2023-03-21T17:52:04.884Z,101106.22
2023-03-21T17:55:00.539Z,101012.09
2023-03-21T17:57:38.093Z,100948.16
2023-03-21T18:00:16.561Z,100995.63
2023-03-21T18:02:45.972Z,101119.91
2023-03-21T18:05:28.935Z,101119.91
2023-03-21T18:11:59.589Z,101068.34
2023-03-21T18:14:34.845Z,101009.13
2023-03-21T18:17:05.565Z,100935.09
2023-03-21T18:19:34.566Z,101063.56
2023-03-21T18:22:07.552Z,101076.47
2023-03-21T18:24:34.454Z,101124.81
2023-03-21T18:27:03.672Z,100966.63
2023-03-21T18:32:23.144Z,101010.69
2023-03-21T18:34:49.845Z,101143.00
2023-03-21T18:37:18.037Z,101130.50
2023-03-21T18:39:45.963Z,101087.84
2023-03-21T18:42:21.480Z,101085.13
2023-03-21T18:45:41.012Z,101087.13
2023-03-21T18:48:07.789Z,101163.50
2023-03-21T18:50:34.754Z,101045.38
2023-03-21T18:53:01.634Z,101039.84
2023-03-21T18:55:45.338Z,101031.44
2023-03-21T18:58:19.490Z,100967.44
2023-03-21T19:00:55.436Z,101023.66
2023-03-21T19:03:36.643Z,101166.69
2023-03-21T19:06:08.840Z,101164.63
2023-03-21T19:08:41.807Z,101092.50
2023-03-21T19:11:10.141Z,101157.84
2023-03-21T19:13:37.778Z,101055.72
2023-03-21T19:16:11.723Z,100935.88
2023-03-21T19:18:57.748Z,101074.44
2023-03-21T19:21:27.296Z,101080.66
2023-03-21T19:24:26.612Z,101125.25
2023-03-21T19:26:56.091Z,101150.03
2023-03-21T19:29:26.556Z,101089.41
2023-03-21T19:31:56.281Z,100952.28
2023-03-21T19:34:26.225Z,101077.22
2023-03-21T19:36:53.375Z,101032.47
2023-03-21T19:39:56.497Z,100949.97
2023-03-21T19:42:28.650Z,101125.19
2023-03-21T19:45:09.385Z,101035.16
2023-03-21T19:47:41.568Z,101025.94
2023-03-21T19:50:47.806Z,101099.88
2023-03-21T19:52:56.912Z,101063.38
2023-03-21T19:55:28.851Z,101147.28
2023-03-21T19:57:59.907Z,101084.22
2023-03-21T20:00:40.961Z,101167.91
2023-03-21T20:03:14.331Z,101057.38
2023-03-21T20:05:43.048Z,101117.25
2023-03-21T20:08:24.817Z,101178.03
2023-03-21T20:10:53.157Z,101160.94
2023-03-21T20:13:21.256Z,101166.97
2023-03-21T20:15:55.098Z,101164.00
2023-03-21T20:18:26.754Z,101169.34
2023-03-21T20:20:57.853Z,100985.03
2023-03-21T20:23:32.090Z,100957.59
2023-03-21T20:26:02.114Z,101092.63
2023-03-21T20:28:33.448Z,101074.72
2023-03-21T20:31:02.629Z,101080.34
2023-03-21T20:33:37.428Z,101152.66
2023-03-21T20:39:00.338Z,101176.31
2023-03-21T20:41:30.034Z,101146.19
2023-03-21T20:44:45.167Z,101134.84
2023-03-21T20:46:53.641Z,101147.22
2023-03-21T20:49:26.838Z,101127.19
2023-03-21T20:52:51.774Z,101177.28
2023-03-21T20:55:03.273Z,101165.66
2023-03-21T20:57:31.529Z,101131.59
2023-03-21T20:59:58.081Z,101153.53
2023-03-21T21:02:30.423Z,101158.28
2023-03-21T21:05:24.130Z,101170.66
2023-03-21T21:07:52.882Z,100988.25
2023-03-21T21:10:26.870Z,101168.16
2023-03-21T21:12:53.866Z,101049.94
2023-03-21T21:15:23.496Z,101151.34
2023-03-21T21:18:06.415Z,101085.66
2023-03-21T21:20:42.832Z,101140.69
2023-03-21T21:23:10.139Z,101190.31
2023-03-21T21:25:42.115Z,101196.53
2023-03-21T21:28:30.513Z,101194.28
2023-03-21T21:31:21.331Z,101067.78
2023-03-21T21:33:50.250Z,101162.72
2023-03-21T21:36:21.658Z,101101.84
2023-03-21T21:38:49.437Z,101024.88
2023-03-21T21:41:34.704Z,101103.84
2023-03-21T21:44:25.541Z,100970.75
2023-03-21T21:47:14.151Z,101190.31
2023-03-21T21:52:27.089Z,101056.19
2023-03-21T21:54:59.036Z,101185.34
2023-03-21T21:57:27.676Z,101115.53
2023-03-21T21:59:56.808Z,101209.50
2023-03-21T22:02:32.238Z,101198.56
2023-03-21T22:05:05.624Z,101206.16
2023-03-21T22:07:37.363Z,101140.94
2023-03-21T22:10:05.224Z,101100.63
2023-03-21T22:12:32.710Z,101204.50
2023-03-21T22:14:59.482Z,101133.59
2023-03-21T22:17:28.014Z,101153.97
2023-03-21T22:22:43.581Z,101083.34
2023-03-21T22:25:13.915Z,101210.41
2023-03-21T22:27:41.744Z,101188.75
2023-03-21T22:30:14.668Z,101097.09
2023-03-21T22:33:06.245Z,101167.44
2023-03-21T22:35:35.913Z,101205.50
2023-03-21T22:38:14.365Z,101188.91
2023-03-21T22:40:44.488Z,101185.41
2023-03-21T22:43:14.040Z,101162.97
2023-03-21T22:45:57.157Z,101206.31
2023-03-21T22:48:24.976Z,101072.59
2023-03-21T22:50:54.682Z,101152.28
2023-03-21T22:53:30.280Z,101214.88
2023-03-21T22:55:57.045Z,101213.22
2023-03-21T22:58:24.091Z,101183.03
2023-03-21T23:00:52.775Z,101212.09
2023-03-21T23:03:19.779Z,101208.72
2023-03-21T23:05:46.724Z,101222.75
2023-03-21T23:08:16.849Z,101218.53
2023-03-21T23:10:46.209Z,101093.97
2023-03-21T23:13:18.237Z,101173.56
2023-03-21T23:16:25.636Z,101188.56
2023-03-21T23:19:03.351Z,101218.91
2023-03-21T23:21:51.681Z,100982.41
2023-03-21T23:24:56.210Z,101109.03
2023-03-21T23:27:35.533Z,101201.25
2023-03-21T23:30:18.998Z,101197.44
2023-03-21T23:35:40.138Z,101156.44
2023-03-21T23:38:13.040Z,101078.97
2023-03-21T23:40:40.651Z,101062.41
2023-03-21T23:43:25.650Z,101048.78
2023-03-21T23:45:54.551Z,101151.69
2023-03-21T23:48:34.340Z,101168.22
2023-03-21T23:53:53.645Z,101175.22
2023-03-21T23:56:36.437Z,101182.78
2023-03-21T23:59:06.832Z,101117.41
